createdAt,value
2019-03-31T00:00:46.450Z,19.40
2019-03-31T00:03:19.768Z,19.36
2019-03-31T00:05:51.484Z,19.33
2019-03-31T00:08:24.763Z,19.35
2019-03-31T00:10:56.574Z,19.34
2019-03-31T00:13:29.318Z,19.31
2019-03-31T00:16:03.313Z,19.31
2019-03-31T00:18:36.072Z,19.30
2019-03-31T00:21:08.948Z,19.28
2019-03-31T00:23:41.865Z,19.30
2019-03-31T00:26:14.824Z,19.30
2019-03-31T00:28:47.822Z,19.30
2019-03-31T00:31:22.485Z,19.26
2019-03-31T00:33:55.081Z,19.27
2019-03-31T00:36:28.023Z,19.24
2019-03-31T00:39:00.960Z,19.23
2019-03-31T00:41:33.858Z,19.17
2019-03-31T00:44:06.793Z,19.16
2019-03-31T00:46:39.738Z,19.14
2019-03-31T00:49:11.619Z,19.15
2019-03-31T00:51:44.269Z,19.16
2019-03-31T00:54:17.760Z,19.16
2019-03-31T00:56:49.452Z,19.16
2019-03-31T00:59:22.069Z,19.11
2019-03-31T01:01:57.326Z,19.10
2019-03-31T01:04:31.312Z,19.13
2019-03-31T01:07:04.782Z,19.12
2019-03-31T01:09:36.878Z,19.07
2019-03-31T01:12:09.916Z,19.10
2019-03-31T01:14:43.021Z,19.09
2019-03-31T01:17:18.817Z,19.08
2019-03-31T01:19:51.070Z,19.05
2019-03-31T01:22:24.083Z,19.05
2019-03-31T01:24:56.938Z,19.06
2019-03-31T01:27:30.031Z,19.01
2019-03-31T01:30:03.378Z,19.01
2019-03-31T01:32:36.276Z,19.00
2019-03-31T01:35:10.667Z,18.95
2019-03-31T01:37:43.733Z,18.96
2019-03-31T01:40:15.633Z,18.96
2019-03-31T01:42:49.046Z,18.94
2019-03-31T01:45:22.002Z,18.94
2019-03-31T01:47:54.903Z,18.97
2019-03-31T01:50:28.379Z,18.97
2019-03-31T01:53:01.410Z,18.94
2019-03-31T01:55:34.080Z,18.94
2019-03-31T01:58:07.316Z,18.91
2019-03-31T02:00:45.602Z,18.91
2019-03-31T02:03:18.589Z,18.81
2019-03-31T02:05:51.314Z,18.82
2019-03-31T02:08:24.033Z,18.82
2019-03-31T02:10:57.014Z,18.91
2019-03-31T02:13:29.899Z,18.93
2019-03-31T02:16:03.788Z,18.91
2019-03-31T02:18:36.807Z,18.92
2019-03-31T02:21:09.784Z,18.89
2019-03-31T02:23:41.689Z,18.86
2019-03-31T02:26:13.452Z,18.87
2019-03-31T02:28:46.057Z,18.88
2019-03-31T02:31:19.313Z,18.79
2019-03-31T02:33:52.766Z,18.80
2019-03-31T02:36:24.483Z,18.81
2019-03-31T02:38:57.322Z,18.79
2019-03-31T02:41:29.984Z,18.78
2019-03-31T02:44:02.934Z,18.80
2019-03-31T02:46:35.829Z,18.78
2019-03-31T02:49:08.776Z,18.73
2019-03-31T02:51:41.857Z,18.75
2019-03-31T02:54:15.337Z,18.72
2019-03-31T02:56:48.067Z,18.72
2019-03-31T02:59:21.462Z,18.69
2019-03-31T03:01:54.135Z,18.64
2019-03-31T03:04:27.052Z,18.63
2019-03-31T03:06:59.901Z,18.67
2019-03-31T03:09:33.324Z,18.66
2019-03-31T03:12:06.062Z,18.69
2019-03-31T03:14:39.046Z,18.62
2019-03-31T03:17:11.892Z,18.63
2019-03-31T03:19:44.877Z,18.58
2019-03-31T03:22:17.838Z,18.58
2019-03-31T03:24:50.779Z,18.57
2019-03-31T03:27:22.640Z,18.59
2019-03-31T03:29:55.383Z,18.58
2019-03-31T03:32:28.312Z,18.58
2019-03-31T03:35:01.341Z,18.61
2019-03-31T03:37:34.075Z,18.59
2019-03-31T03:40:06.940Z,18.54
2019-03-31T03:42:39.865Z,18.56
2019-03-31T03:45:12.864Z,18.59
2019-03-31T03:47:45.867Z,18.62
2019-03-31T03:50:19.108Z,18.61
2019-03-31T03:52:51.954Z,18.58
2019-03-31T03:55:24.881Z,18.53
2019-03-31T03:57:57.863Z,18.54
2019-03-31T04:00:30.871Z,18.49
2019-03-31T04:03:03.851Z,18.53
2019-03-31T04:05:36.724Z,18.51
2019-03-31T04:08:08.631Z,18.52
2019-03-31T04:11:29.276Z,18.52
2019-03-31T04:14:02.408Z,18.47
2019-03-31T04:16:35.353Z,18.41
2019-03-31T04:19:08.068Z,18.46
2019-03-31T04:21:41.045Z,18.42
2019-03-31T04:24:13.993Z,18.43
2019-03-31T04:26:46.894Z,18.38
2019-03-31T04:29:19.861Z,18.37
2019-03-31T04:31:53.363Z,18.44
2019-03-31T04:34:26.870Z,18.40
2019-03-31T04:37:00.326Z,18.42
2019-03-31T04:39:33.413Z,18.41
2019-03-31T04:42:06.979Z,18.42
2019-03-31T04:44:41.319Z,18.42
2019-03-31T04:47:14.892Z,18.41
2019-03-31T04:49:48.350Z,18.44
2019-03-31T04:52:21.899Z,18.44
2019-03-31T04:54:55.473Z,18.42
2019-03-31T04:57:28.844Z,18.37
2019-03-31T05:00:02.922Z,18.41
2019-03-31T05:05:21.421Z,18.61
2019-03-31T05:07:54.885Z,18.69
2019-03-31T05:10:28.434Z,18.96
2019-03-31T05:13:01.823Z,19.26
2019-03-31T05:15:35.368Z,19.48
2019-03-31T05:18:08.880Z,19.68
2019-03-31T05:20:42.465Z,19.88
2019-03-31T05:23:16.320Z,20.04
2019-03-31T05:25:49.839Z,20.16
2019-03-31T05:28:23.065Z,20.26
2019-03-31T05:30:56.861Z,20.33
2019-03-31T05:33:30.321Z,20.36
2019-03-31T05:36:03.636Z,20.37
2019-03-31T05:38:37.051Z,20.39
2019-03-31T05:41:10.436Z,20.39
2019-03-31T05:43:43.877Z,20.37
2019-03-31T05:46:17.386Z,20.41
2019-03-31T05:48:51.312Z,20.45
2019-03-31T05:51:25.320Z,20.41
2019-03-31T05:53:58.465Z,20.37
2019-03-31T05:56:31.868Z,20.38
2019-03-31T05:59:05.347Z,20.37
2019-03-31T06:01:38.581Z,20.32
2019-03-31T06:04:11.874Z,20.11
2019-03-31T06:06:45.314Z,20.11
2019-03-31T06:09:18.623Z,20.09
2019-03-31T06:11:53.533Z,19.99
2019-03-31T06:14:27.320Z,19.99
2019-03-31T06:17:00.557Z,19.87
2019-03-31T06:19:33.781Z,19.76
2019-03-31T06:22:07.281Z,19.68
2019-03-31T06:24:40.504Z,19.60
2019-03-31T06:27:15.768Z,19.55
2019-03-31T06:29:48.915Z,19.54
2019-03-31T06:32:22.915Z,19.52
2019-03-31T06:34:56.814Z,19.51
2019-03-31T06:37:30.843Z,19.46
2019-03-31T06:40:04.749Z,19.40
2019-03-31T06:42:36.895Z,19.40
2019-03-31T06:45:10.591Z,19.43
2019-03-31T06:47:44.036Z,19.70
2019-03-31T06:50:17.405Z,19.70
2019-03-31T06:52:50.572Z,19.83
2019-03-31T06:55:23.264Z,19.85
2019-03-31T06:57:56.116Z,19.88
2019-03-31T07:00:30.129Z,19.90
2019-03-31T07:03:03.309Z,19.87
2019-03-31T07:05:36.838Z,19.86
2019-03-31T07:08:10.484Z,19.88
2019-03-31T07:10:44.278Z,19.89
2019-03-31T07:13:18.376Z,19.85
2019-03-31T07:15:52.323Z,19.87
2019-03-31T07:18:25.850Z,19.88
2019-03-31T07:21:00.150Z,19.89
2019-03-31T07:23:34.525Z,19.81
2019-03-31T07:26:08.694Z,19.81
2019-03-31T07:28:42.275Z,19.83
2019-03-31T07:31:15.910Z,19.81
2019-03-31T07:33:49.414Z,19.80
2019-03-31T07:36:22.875Z,19.83
2019-03-31T07:38:56.430Z,19.83
2019-03-31T07:41:29.897Z,19.77
2019-03-31T07:44:03.374Z,19.77
2019-03-31T07:46:36.343Z,19.92
2019-03-31T07:49:09.595Z,19.87
2019-03-31T07:51:43.098Z,19.82
2019-03-31T07:54:18.853Z,19.82
2019-03-31T07:56:53.335Z,19.82
2019-03-31T07:59:27.953Z,19.86
2019-03-31T08:02:01.840Z,20.11
2019-03-31T08:04:36.624Z,20.25
2019-03-31T08:07:14.324Z,20.35
2019-03-31T08:09:47.866Z,20.35
2019-03-31T08:12:21.431Z,20.35
2019-03-31T08:14:54.966Z,20.41
2019-03-31T08:17:28.370Z,20.45
2019-03-31T08:20:02.097Z,20.47
2019-03-31T08:22:38.445Z,20.43
2019-03-31T08:25:12.331Z,20.43
2019-03-31T08:27:45.381Z,20.46
2019-03-31T08:30:19.375Z,20.53
2019-03-31T08:32:52.497Z,20.56
2019-03-31T08:35:25.874Z,20.57
2019-03-31T08:37:59.418Z,20.47
2019-03-31T08:40:33.318Z,20.49
2019-03-31T08:43:07.092Z,20.50
2019-03-31T08:45:40.398Z,20.40
2019-03-31T08:48:16.398Z,20.40
2019-03-31T08:50:51.593Z,20.34
2019-03-31T08:53:31.458Z,20.13
2019-03-31T08:56:08.556Z,20.13
2019-03-31T08:58:47.731Z,20.15
2019-03-31T09:01:22.122Z,20.23
2019-03-31T09:03:55.913Z,20.22
2019-03-31T09:06:29.444Z,20.21
2019-03-31T09:09:03.327Z,20.26
2019-03-31T09:11:36.880Z,20.23
2019-03-31T09:14:10.614Z,20.28
2019-03-31T09:16:43.701Z,20.26
2019-03-31T09:19:17.274Z,20.19
2019-03-31T09:21:50.538Z,20.18
2019-03-31T09:24:23.858Z,20.13
2019-03-31T09:26:57.405Z,20.10
2019-03-31T09:29:32.282Z,20.07
2019-03-31T09:32:05.585Z,20.03
2019-03-31T09:34:39.332Z,20.00
2019-03-31T09:37:12.861Z,20.00
2019-03-31T09:39:46.406Z,20.02
2019-03-31T09:42:20.107Z,19.98
2019-03-31T09:44:53.903Z,19.99
2019-03-31T09:47:28.712Z,20.01
2019-03-31T09:50:01.285Z,20.05
2019-03-31T09:52:34.845Z,20.02
2019-03-31T09:55:09.330Z,20.02
2019-03-31T09:57:43.472Z,20.02
2019-03-31T10:00:39.869Z,20.04
2019-03-31T10:03:13.388Z,20.03
2019-03-31T10:05:48.070Z,20.05
2019-03-31T10:08:22.544Z,20.02
2019-03-31T10:10:56.096Z,19.98
2019-03-31T10:13:29.606Z,19.98
2019-03-31T10:16:03.098Z,19.85
2019-03-31T10:18:41.676Z,19.85
2019-03-31T10:21:14.288Z,19.98
2019-03-31T10:23:49.439Z,19.98
2019-03-31T10:26:31.847Z,19.98
2019-03-31T10:28:58.675Z,19.94
2019-03-31T10:31:32.332Z,19.85
2019-03-31T10:34:05.879Z,19.85
2019-03-31T10:36:44.755Z,19.90
2019-03-31T10:39:14.887Z,19.86
2019-03-31T10:41:48.331Z,19.87
2019-03-31T10:44:21.829Z,19.86
2019-03-31T10:46:58.439Z,19.85
2019-03-31T10:49:30.290Z,19.85
2019-03-31T10:52:03.830Z,19.88
2019-03-31T10:54:37.433Z,19.86
2019-03-31T10:57:10.820Z,19.85
2019-03-31T10:59:44.419Z,19.87
2019-03-31T11:02:17.827Z,19.84
2019-03-31T11:04:51.829Z,19.85
2019-03-31T11:07:25.990Z,19.82
2019-03-31T11:09:59.459Z,19.80
2019-03-31T11:12:32.853Z,19.77
2019-03-31T11:15:06.522Z,19.74
2019-03-31T11:17:39.899Z,19.71
2019-03-31T11:20:14.327Z,19.67
2019-03-31T11:22:55.867Z,19.75
2019-03-31T11:25:30.700Z,19.74
2019-03-31T11:28:04.905Z,19.76
2019-03-31T11:30:39.498Z,19.76
2019-03-31T11:33:12.906Z,19.78
2019-03-31T11:35:46.705Z,19.79
2019-03-31T11:38:19.284Z,19.80
2019-03-31T11:40:52.883Z,19.80
2019-03-31T11:43:26.333Z,19.81
2019-03-31T11:45:59.870Z,19.84
2019-03-31T11:48:33.370Z,19.82
2019-03-31T11:51:07.339Z,19.77
2019-03-31T11:53:40.878Z,19.78
2019-03-31T11:56:15.026Z,19.79
2019-03-31T11:58:48.646Z,19.79
2019-03-31T12:01:23.769Z,19.80
2019-03-31T12:03:57.617Z,19.81
2019-03-31T12:06:32.997Z,20.14
2019-03-31T12:09:07.632Z,20.36
2019-03-31T12:11:41.644Z,20.51
2019-03-31T12:14:15.682Z,20.52
2019-03-31T12:16:49.683Z,20.75
2019-03-31T12:19:25.724Z,20.79
2019-03-31T12:21:59.690Z,20.82
2019-03-31T12:24:34.684Z,20.95
2019-03-31T12:27:09.643Z,20.95
2019-03-31T12:29:43.645Z,21.04
2019-03-31T12:32:19.693Z,21.04
2019-03-31T12:34:55.686Z,21.08
2019-03-31T12:37:41.612Z,21.29
2019-03-31T12:40:15.322Z,21.29
2019-03-31T12:42:51.728Z,21.13
2019-03-31T12:45:25.661Z,20.97
2019-03-31T12:48:01.306Z,20.90
2019-03-31T12:50:37.695Z,20.90
2019-03-31T12:53:11.658Z,20.87
2019-03-31T12:55:59.431Z,20.86
2019-03-31T12:58:23.796Z,20.86
2019-03-31T13:00:58.669Z,20.85
2019-03-31T13:03:34.730Z,20.72
2019-03-31T13:06:08.666Z,20.70
2019-03-31T13:08:44.101Z,20.79
2019-03-31T13:11:21.703Z,20.79
2019-03-31T13:13:57.752Z,20.63
2019-03-31T13:16:31.646Z,20.59
2019-03-31T13:19:13.676Z,20.53
2019-03-31T13:21:47.632Z,20.53
2019-03-31T13:24:21.668Z,20.32
2019-03-31T13:26:55.659Z,20.29
2019-03-31T13:29:30.712Z,20.27
2019-03-31T13:32:04.655Z,20.23
2019-03-31T13:34:39.726Z,20.16
2019-03-31T13:37:13.630Z,20.18
2019-03-31T13:39:47.641Z,20.09
2019-03-31T13:42:22.648Z,20.06
2019-03-31T13:44:56.389Z,20.01
2019-03-31T13:47:32.690Z,20.01
2019-03-31T13:50:06.621Z,20.31
2019-03-31T13:52:41.741Z,20.32
2019-03-31T13:56:37.499Z,20.40
2019-03-31T13:59:11.331Z,20.24
2019-03-31T14:01:45.291Z,20.24
2019-03-31T14:04:19.096Z,20.28
2019-03-31T14:06:53.322Z,20.27
2019-03-31T14:09:26.598Z,20.31
2019-03-31T14:11:59.841Z,20.25
2019-03-31T14:14:34.429Z,20.25
2019-03-31T14:17:07.920Z,20.18
2019-03-31T14:19:42.475Z,19.85
2019-03-31T14:22:16.103Z,20.07
2019-03-31T14:24:49.364Z,20.31
2019-03-31T14:27:22.926Z,20.44
2019-03-31T14:29:56.474Z,20.45
2019-03-31T14:32:30.451Z,20.39
2019-03-31T14:35:03.556Z,20.45
2019-03-31T14:37:37.391Z,20.59
2019-03-31T14:40:13.404Z,20.53
2019-03-31T14:42:46.882Z,20.55
2019-03-31T14:45:38.334Z,20.48
2019-03-31T14:48:12.401Z,20.52
2019-03-31T14:50:45.546Z,20.51
2019-03-31T14:53:19.289Z,20.36
2019-03-31T14:55:53.031Z,20.36
2019-03-31T14:58:26.776Z,20.35
2019-03-31T15:01:02.328Z,20.31
2019-03-31T15:03:35.527Z,20.35
2019-03-31T15:06:08.901Z,20.37
2019-03-31T15:08:53.810Z,20.27
2019-03-31T15:11:21.986Z,20.06
2019-03-31T15:14:55.464Z,19.97
2019-03-31T15:17:29.064Z,19.84
2019-03-31T15:20:02.651Z,19.82
2019-03-31T15:22:38.311Z,19.79
2019-03-31T15:25:11.757Z,19.79
2019-03-31T15:27:44.788Z,19.73
2019-03-31T15:30:18.427Z,19.75
2019-03-31T15:32:51.486Z,19.78
2019-03-31T15:35:25.331Z,19.95
2019-03-31T15:37:58.899Z,20.05
2019-03-31T15:40:32.413Z,20.10
2019-03-31T15:43:06.838Z,20.02
2019-03-31T15:45:41.442Z,20.03
2019-03-31T15:48:16.691Z,19.66
2019-03-31T15:50:48.887Z,19.97
2019-03-31T15:53:22.360Z,20.16
2019-03-31T15:55:56.030Z,20.24
2019-03-31T15:58:30.060Z,20.30
2019-03-31T16:01:03.481Z,20.33
2019-03-31T16:03:39.394Z,20.39
2019-03-31T16:06:13.347Z,20.38
2019-03-31T16:08:45.839Z,20.30
2019-03-31T16:11:17.899Z,20.30
2019-03-31T16:13:50.322Z,20.24
2019-03-31T16:16:24.020Z,20.18
2019-03-31T16:18:56.535Z,20.23
2019-03-31T16:21:28.913Z,20.26
2019-03-31T16:24:00.871Z,20.27
2019-03-31T16:26:33.435Z,20.13
2019-03-31T16:29:05.863Z,20.12
2019-03-31T16:31:38.512Z,20.00
2019-03-31T16:34:10.869Z,20.11
2019-03-31T16:36:43.072Z,20.43
2019-03-31T16:39:15.441Z,20.34
2019-03-31T16:41:47.825Z,20.18
2019-03-31T16:44:20.086Z,20.27
2019-03-31T16:46:52.908Z,20.26
2019-03-31T16:49:24.873Z,20.14
2019-03-31T16:51:57.506Z,20.15
2019-03-31T16:54:29.843Z,20.09
2019-03-31T16:57:02.328Z,20.08
2019-03-31T16:59:35.543Z,20.09
2019-03-31T17:02:08.380Z,20.00
2019-03-31T17:04:40.838Z,19.97
2019-03-31T17:07:12.935Z,20.01
2019-03-31T17:09:51.445Z,19.97
2019-03-31T17:12:21.004Z,19.86
2019-03-31T17:14:53.837Z,19.86
2019-03-31T17:17:26.376Z,19.95
2019-03-31T17:19:59.352Z,19.89
2019-03-31T17:22:32.359Z,19.82
2019-03-31T17:25:04.876Z,19.82
2019-03-31T17:27:37.095Z,19.66
2019-03-31T17:30:09.538Z,19.68
2019-03-31T17:32:41.957Z,20.10
2019-03-31T17:35:14.073Z,20.10
2019-03-31T17:37:46.476Z,20.29
2019-03-31T17:40:18.872Z,20.36
2019-03-31T17:42:50.815Z,20.41
2019-03-31T17:45:25.781Z,20.35
2019-03-31T17:47:57.389Z,20.31
2019-03-31T17:50:29.040Z,20.35
2019-03-31T17:53:03.692Z,20.31
2019-03-31T17:55:34.305Z,20.30
2019-03-31T17:58:05.832Z,20.22
2019-03-31T18:00:37.591Z,20.17
2019-03-31T18:03:11.702Z,20.10
2019-03-31T18:05:42.469Z,20.10
2019-03-31T18:08:14.302Z,20.08
2019-03-31T18:10:46.049Z,20.07
2019-03-31T18:13:17.845Z,19.98
2019-03-31T18:15:49.757Z,19.91
2019-03-31T18:18:20.487Z,19.75
2019-03-31T18:20:52.385Z,19.60
2019-03-31T18:23:24.058Z,19.60
2019-03-31T18:25:55.744Z,19.54
2019-03-31T18:28:26.878Z,19.46
2019-03-31T18:30:58.889Z,19.43
2019-03-31T18:33:30.622Z,19.45
2019-03-31T18:36:02.707Z,19.76
2019-03-31T18:38:33.584Z,19.76
2019-03-31T18:41:05.384Z,19.91
2019-03-31T18:43:50.681Z,19.91
2019-03-31T18:46:10.402Z,19.81
2019-03-31T18:48:42.310Z,19.81
2019-03-31T18:51:13.998Z,19.77
2019-03-31T18:53:50.347Z,19.76
2019-03-31T18:56:47.422Z,19.71
2019-03-31T18:59:51.066Z,19.63
2019-03-31T19:02:36.061Z,19.63
2019-03-31T19:05:25.958Z,19.33
2019-03-31T19:08:15.998Z,19.23
2019-03-31T19:11:06.327Z,19.20
2019-03-31T19:14:03.063Z,19.20
2019-03-31T19:16:55.725Z,19.32
2019-03-31T19:19:45.460Z,19.37
2019-03-31T19:22:34.694Z,19.46
2019-03-31T19:25:34.267Z,19.53
2019-03-31T19:28:17.532Z,19.42
2019-03-31T19:31:04.307Z,19.41
2019-03-31T19:33:58.801Z,19.41
2019-03-31T19:36:44.791Z,19.35
2019-03-31T19:39:41.335Z,19.33
2019-03-31T19:42:39.394Z,19.31
2019-03-31T19:45:42.497Z,19.34
2019-03-31T19:48:22.732Z,19.35
2019-03-31T19:51:18.260Z,19.28
2019-03-31T19:54:08.561Z,19.23
2019-03-31T19:56:56.070Z,19.21
2019-03-31T19:59:52.309Z,19.26
2019-03-31T20:02:35.723Z,19.23
2019-03-31T20:05:40.674Z,19.20
2019-03-31T20:08:22.773Z,19.15
2019-03-31T20:11:25.695Z,19.21
2019-03-31T20:14:11.934Z,19.21
2019-03-31T20:16:54.353Z,19.20
2019-03-31T20:19:34.326Z,19.13
2019-03-31T20:22:23.649Z,19.12
2019-03-31T20:25:19.080Z,18.93
2019-03-31T20:27:59.709Z,18.93
2019-03-31T20:30:43.582Z,19.09
2019-03-31T20:33:34.070Z,18.84
2019-03-31T20:36:30.444Z,18.84
2019-03-31T20:39:20.762Z,19.00
2019-03-31T20:41:58.309Z,19.07
2019-03-31T20:44:29.858Z,19.07
2019-03-31T20:47:01.435Z,19.12
2019-03-31T20:49:33.305Z,19.08
2019-03-31T20:52:06.727Z,19.02
2019-03-31T20:54:38.647Z,19.01
2019-03-31T20:57:14.730Z,18.98
2019-03-31T20:59:48.822Z,18.98
2019-03-31T21:02:22.741Z,18.92
2019-03-31T21:04:55.732Z,18.76
2019-03-31T21:07:27.675Z,18.80
2019-03-31T21:10:00.721Z,18.74
2019-03-31T21:12:32.668Z,18.88
2019-03-31T21:15:05.713Z,18.75
2019-03-31T21:17:38.703Z,18.79
2019-03-31T21:20:11.712Z,18.72
2019-03-31T21:22:43.654Z,18.83
2019-03-31T21:25:36.710Z,18.85
2019-03-31T21:28:08.657Z,18.78
2019-03-31T21:30:42.662Z,18.72
2019-03-31T21:33:14.580Z,18.54
2019-03-31T21:35:48.813Z,18.72
2019-03-31T21:38:20.615Z,18.72
2019-03-31T21:40:52.671Z,18.72
2019-03-31T21:43:25.658Z,18.69
2019-03-31T21:45:58.721Z,18.57
2019-03-31T21:48:30.670Z,18.56
2019-03-31T21:51:03.684Z,18.50
2019-03-31T21:53:36.693Z,18.59
2019-03-31T21:56:09.696Z,18.49
2019-03-31T21:58:42.716Z,18.62
2019-03-31T22:01:14.637Z,18.59
2019-03-31T22:03:50.717Z,18.56
2019-03-31T22:06:22.686Z,18.43
2019-03-31T22:08:55.797Z,18.44
2019-03-31T22:11:27.641Z,18.48
2019-03-31T22:14:00.714Z,18.51
2019-03-31T22:16:32.498Z,18.51
2019-03-31T22:21:28.757Z,18.57
2019-03-31T22:23:59.503Z,18.47
2019-03-31T22:26:31.373Z,18.45
2019-03-31T22:29:03.068Z,18.46
2019-03-31T22:31:34.794Z,18.38
2019-03-31T22:34:05.779Z,18.42
2019-03-31T22:36:38.036Z,18.46
2019-03-31T22:39:10.462Z,18.44
2019-03-31T22:41:42.858Z,18.40
2019-03-31T22:44:14.950Z,18.44
2019-03-31T22:46:54.179Z,18.38
2019-03-31T22:49:19.898Z,18.43
2019-03-31T22:51:52.330Z,18.32
2019-03-31T22:54:25.329Z,18.31
2019-03-31T22:56:57.855Z,18.33
2019-03-31T22:59:29.873Z,18.29
2019-03-31T23:02:01.883Z,18.29
2019-03-31T23:04:33.884Z,18.27
2019-03-31T23:07:06.047Z,18.28
2019-03-31T23:09:38.285Z,18.13
2019-03-31T23:12:10.848Z,18.21
2019-03-31T23:14:43.031Z,18.16
2019-03-31T23:17:15.373Z,18.15
2019-03-31T23:19:47.864Z,18.00
2019-03-31T23:22:19.908Z,18.11
2019-03-31T23:24:52.111Z,18.09
2019-03-31T23:27:25.031Z,18.16
2019-03-31T23:29:57.337Z,18.20
2019-03-31T23:32:29.851Z,18.18
2019-03-31T23:35:01.891Z,18.22
2019-03-31T23:37:33.915Z,18.27
2019-03-31T23:40:06.558Z,18.24
2019-03-31T23:42:39.044Z,18.20
2019-03-31T23:45:11.362Z,18.20
2019-03-31T23:47:43.918Z,18.17
2019-03-31T23:50:16.371Z,18.15
2019-03-31T23:52:48.869Z,18.17
2019-03-31T23:55:21.333Z,18.15
2019-03-31T23:57:53.890Z,17.93
